createdAt,value
2022-09-28T00:02:48.607Z,4.43
2022-09-28T00:06:49.137Z,4.20
2022-09-28T00:10:56.830Z,5.18
2022-09-28T00:14:56.362Z,4.70
2022-09-28T00:18:58.102Z,5.13
2022-09-28T00:22:57.766Z,4.80
2022-09-28T00:27:01.011Z,4.90
2022-09-28T00:31:01.015Z,5.60
2022-09-28T00:35:02.686Z,5.82
2022-09-28T00:39:06.437Z,5.03
2022-09-28T00:43:20.347Z,6.45
2022-09-28T00:47:28.973Z,4.80
2022-09-28T00:51:33.017Z,5.75
2022-09-28T00:55:40.286Z,5.05
2022-09-28T00:59:39.979Z,5.60
2022-09-28T01:03:44.850Z,5.40
2022-09-28T01:07:48.314Z,5.63
2022-09-28T01:11:48.549Z,5.53
2022-09-28T01:15:59.094Z,8.25
2022-09-28T01:20:17.854Z,5.90
2022-09-28T01:24:37.769Z,6.05
2022-09-28T01:28:40.062Z,5.88
2022-09-28T01:32:49.782Z,5.63
2022-09-28T01:36:52.417Z,5.82
2022-09-28T01:40:54.159Z,6.93
2022-09-28T01:45:03.411Z,7.80
2022-09-28T01:49:08.524Z,7.53
2022-09-28T01:53:14.894Z,5.97
2022-09-28T01:57:22.057Z,6.43
2022-09-28T02:01:29.907Z,6.10
2022-09-28T02:05:34.081Z,6.82
2022-09-28T02:09:39.317Z,6.60
2022-09-28T02:13:43.349Z,7.15
2022-09-28T02:17:46.442Z,6.82
2022-09-28T02:21:55.854Z,8.00
2022-09-28T02:26:02.946Z,7.15
2022-09-28T02:30:03.199Z,6.78
2022-09-28T02:34:04.968Z,6.97
2022-09-28T02:38:04.453Z,6.88
2022-09-28T02:42:13.815Z,7.50
2022-09-28T02:46:21.846Z,7.90
2022-09-28T02:50:37.067Z,7.60
2022-09-28T02:54:56.664Z,7.50
2022-09-28T02:59:05.292Z,7.43
2022-09-28T03:03:13.964Z,7.95
2022-09-28T03:07:24.839Z,7.77
2022-09-28T03:11:27.498Z,8.40
2022-09-28T03:15:29.109Z,8.35
2022-09-28T03:19:32.324Z,7.25
2022-09-28T03:23:33.745Z,7.13
2022-09-28T03:27:33.460Z,8.13
2022-09-28T03:35:32.608Z,7.68
2022-09-28T03:39:33.851Z,8.10
2022-09-28T03:43:33.763Z,7.20
2022-09-28T03:47:33.850Z,8.77
2022-09-28T03:51:34.012Z,8.57
2022-09-28T03:55:35.127Z,7.68
2022-09-28T03:59:37.075Z,8.18
2022-09-28T04:03:36.923Z,8.60
2022-09-28T04:07:37.068Z,8.57
2022-09-28T04:12:02.400Z,8.65
2022-09-28T04:16:00.701Z,7.43
2022-09-28T04:20:02.621Z,8.07
2022-09-28T04:24:03.706Z,7.25
2022-09-28T04:28:21.965Z,9.73
2022-09-28T04:32:22.263Z,8.35
2022-09-28T04:36:24.756Z,8.55
2022-09-28T04:40:24.041Z,8.25
2022-09-28T04:44:26.631Z,7.95
2022-09-28T04:48:30.594Z,8.38
2022-09-28T04:52:30.635Z,8.15
2022-09-28T05:00:35.796Z,7.38
2022-09-28T05:04:35.708Z,6.78
2022-09-28T05:08:36.587Z,6.63
2022-09-28T05:12:35.659Z,6.65
2022-09-28T05:16:37.553Z,7.72
2022-09-28T05:20:43.175Z,6.35
2022-09-28T05:24:46.095Z,7.90
2022-09-28T05:28:47.798Z,8.18
2022-09-28T05:32:51.302Z,6.70
2022-09-28T05:36:50.990Z,6.30
2022-09-28T05:40:50.694Z,5.57
2022-09-28T05:44:50.507Z,5.45
2022-09-28T05:53:00.343Z,5.03
2022-09-28T05:56:59.959Z,3.60
2022-09-28T06:01:00.159Z,4.10
2022-09-28T06:05:01.871Z,4.03
2022-09-28T06:09:02.304Z,3.45
2022-09-28T06:13:03.496Z,3.10
2022-09-28T06:17:02.634Z,4.22
2022-09-28T06:21:05.571Z,3.05
2022-09-28T06:25:06.395Z,2.97
2022-09-28T06:29:05.676Z,2.85
2022-09-28T06:33:05.787Z,2.72
2022-09-28T06:37:07.082Z,2.80
2022-09-28T06:41:07.088Z,2.65
2022-09-28T06:45:06.853Z,2.65
2022-09-28T06:49:08.885Z,3.03
2022-09-28T06:53:17.770Z,2.95
2022-09-28T06:57:17.883Z,2.03
2022-09-28T07:01:17.208Z,3.30
2022-09-28T07:05:18.825Z,2.70
2022-09-28T07:09:32.410Z,2.80
2022-09-28T07:13:49.936Z,2.58
2022-09-28T07:18:00.019Z,2.88
2022-09-28T07:22:05.147Z,2.03
2022-09-28T07:26:09.394Z,2.35
2022-09-28T07:30:17.762Z,2.95
2022-09-28T07:34:18.115Z,2.47
2022-09-28T07:38:19.770Z,2.22
2022-09-28T07:42:21.532Z,1.88
2022-09-28T07:46:21.860Z,2.20
2022-09-28T07:50:23.118Z,2.25
2022-09-28T07:54:22.644Z,1.90
2022-09-28T07:58:24.970Z,2.55
2022-09-28T08:02:25.553Z,1.98
2022-09-28T08:06:25.859Z,2.45
2022-09-28T08:10:25.074Z,1.50
2022-09-28T08:14:29.310Z,2.15
2022-09-28T08:18:30.547Z,2.63
2022-09-28T08:22:31.902Z,3.13
2022-09-28T08:26:31.825Z,2.78
2022-09-28T08:30:33.831Z,1.85
2022-09-28T08:34:34.193Z,1.95
2022-09-28T08:38:34.986Z,1.88
2022-09-28T08:42:41.897Z,1.55
2022-09-28T08:46:47.439Z,2.25
2022-09-28T08:50:53.364Z,1.98
2022-09-28T08:55:00.539Z,1.67
2022-09-28T08:59:05.270Z,1.85
2022-09-28T09:03:13.883Z,2.08
2022-09-28T09:07:31.680Z,1.80
2022-09-28T09:11:56.610Z,1.90
2022-09-28T09:16:02.984Z,1.73
2022-09-28T09:20:19.771Z,1.70
2022-09-28T09:24:27.702Z,1.83
2022-09-28T09:29:00.667Z,2.13
2022-09-28T09:33:23.912Z,1.55
2022-09-28T09:37:54.145Z,1.67
2022-09-28T09:42:13.159Z,1.60
2022-09-28T09:46:36.088Z,1.77
2022-09-28T09:50:41.182Z,1.30
2022-09-28T09:54:48.780Z,1.65
2022-09-28T10:02:53.866Z,1.50
2022-09-28T10:07:00.810Z,1.60
2022-09-28T10:11:10.305Z,1.40
2022-09-28T10:15:11.256Z,1.30
2022-09-28T10:19:14.666Z,1.85
2022-09-28T10:23:25.132Z,2.00
2022-09-28T10:27:29.715Z,2.42
2022-09-28T10:31:39.752Z,1.27
2022-09-28T10:35:44.285Z,1.50
2022-09-28T10:39:49.352Z,1.40
2022-09-28T10:44:05.808Z,1.45
2022-09-28T10:48:18.446Z,1.50
2022-09-28T10:52:39.991Z,1.30
2022-09-28T10:56:42.242Z,1.45
2022-09-28T11:00:45.298Z,1.30
2022-09-28T11:04:52.084Z,1.48
2022-09-28T11:08:52.440Z,1.20
2022-09-28T11:12:53.697Z,1.50
2022-09-28T11:17:17.430Z,1.33
2022-09-28T11:21:18.993Z,1.33
2022-09-28T11:25:24.159Z,1.67
2022-09-28T11:29:27.548Z,1.27
2022-09-28T11:33:34.245Z,1.30
2022-09-28T11:38:03.429Z,1.38
2022-09-28T11:42:19.419Z,1.17
2022-09-28T11:46:33.337Z,1.40
2022-09-28T11:50:46.856Z,1.35
2022-09-28T11:54:52.686Z,1.23
2022-09-28T11:58:57.700Z,1.52
2022-09-28T12:03:03.389Z,1.20
2022-09-28T12:07:10.811Z,1.63
2022-09-28T12:11:16.280Z,1.48
2022-09-28T12:15:23.911Z,1.70
2022-09-28T12:19:31.555Z,1.25
2022-09-28T12:23:36.869Z,1.83
2022-09-28T12:27:42.051Z,1.52
2022-09-28T12:31:52.455Z,1.25
2022-09-28T12:36:12.030Z,1.10
2022-09-28T12:44:59.743Z,1.17
2022-09-28T12:50:20.167Z,1.88
2022-09-28T12:54:03.662Z,2.05
2022-09-28T12:58:19.558Z,1.23
2022-09-28T13:02:39.740Z,2.17
2022-09-28T13:06:54.013Z,2.00
2022-09-28T13:11:07.978Z,1.13
2022-09-28T13:15:46.014Z,1.35
2022-09-28T13:19:53.200Z,1.85
2022-09-28T13:24:08.757Z,4.43
2022-09-28T13:28:17.710Z,1.73
2022-09-28T13:32:20.472Z,2.55
2022-09-28T13:36:47.262Z,1.20
2022-09-28T13:41:20.408Z,1.50
2022-09-28T13:45:35.451Z,1.50
2022-09-28T13:49:50.308Z,1.23
2022-09-28T13:54:13.853Z,1.33
2022-09-28T13:58:25.093Z,1.20
2022-09-28T14:02:34.572Z,1.73
2022-09-28T14:06:37.707Z,1.60
2022-09-28T14:10:51.784Z,1.85
2022-09-28T14:14:53.232Z,1.83
2022-09-28T14:18:57.049Z,1.90
2022-09-28T14:23:36.249Z,2.28
2022-09-28T14:28:02.227Z,1.27
2022-09-28T14:32:07.490Z,2.17
2022-09-28T14:36:10.399Z,1.77
2022-09-28T14:40:39.128Z,1.58
2022-09-28T14:45:12.315Z,1.33
2022-09-28T14:50:01.773Z,1.38
2022-09-28T14:54:05.874Z,1.92
2022-09-28T14:58:18.821Z,2.05
2022-09-28T15:02:33.284Z,5.50
2022-09-28T15:06:46.898Z,3.63
2022-09-28T15:10:51.011Z,3.67
2022-09-28T15:14:55.730Z,1.67
2022-09-28T15:19:21.090Z,2.00
2022-09-28T15:23:29.444Z,1.63
2022-09-28T15:27:37.062Z,3.58
2022-09-28T15:31:39.404Z,1.90
2022-09-28T15:35:40.365Z,1.33
2022-09-28T15:39:40.280Z,2.53
2022-09-28T15:43:41.212Z,2.03
2022-09-28T15:47:44.918Z,2.40
2022-09-28T15:51:51.939Z,2.28
2022-09-28T15:55:52.404Z,2.80
2022-09-28T15:59:56.582Z,4.18
2022-09-28T16:03:59.106Z,4.68
2022-09-28T16:07:59.009Z,3.65
2022-09-28T16:11:58.999Z,3.20
2022-09-28T16:16:00.453Z,3.65
2022-09-28T16:20:09.609Z,2.85
2022-09-28T16:24:19.958Z,2.85
2022-09-28T16:28:33.668Z,4.95
2022-09-28T16:32:41.723Z,6.15
2022-09-28T16:36:47.546Z,6.55
2022-09-28T16:40:54.603Z,5.90
2022-09-28T16:44:58.144Z,5.05
2022-09-28T16:49:02.229Z,5.85
2022-09-28T16:57:49.966Z,3.42
2022-09-28T17:02:00.680Z,4.38
2022-09-28T17:06:00.550Z,5.55
2022-09-28T17:10:02.522Z,6.85
2022-09-28T17:14:02.918Z,7.95
2022-09-28T17:18:02.390Z,8.15
2022-09-28T17:22:03.079Z,6.95
2022-09-28T17:26:08.390Z,7.63
2022-09-28T17:30:09.232Z,6.30
2022-09-28T17:34:09.856Z,8.27
2022-09-28T17:38:11.544Z,7.40
2022-09-28T17:42:13.792Z,7.43
2022-09-28T17:46:27.383Z,9.85
2022-09-28T17:50:29.919Z,6.40
2022-09-28T17:54:30.387Z,4.20
2022-09-28T17:58:34.452Z,3.78
2022-09-28T18:02:45.271Z,3.88
2022-09-28T18:06:45.889Z,3.42
2022-09-28T18:10:51.166Z,4.10
2022-09-28T18:14:52.857Z,5.32
2022-09-28T18:18:52.735Z,3.78
2022-09-28T18:23:00.325Z,4.85
2022-09-28T18:27:00.364Z,4.82
2022-09-28T18:31:12.858Z,5.85
2022-09-28T18:35:12.907Z,5.20
2022-09-28T18:39:13.065Z,4.57
2022-09-28T18:43:14.845Z,4.65
2022-09-28T18:47:17.274Z,4.75
2022-09-28T18:51:17.480Z,5.00
2022-09-28T18:55:17.482Z,4.28
2022-09-28T18:59:20.328Z,5.22
2022-09-28T19:03:24.812Z,6.05
2022-09-28T19:07:24.169Z,3.60
2022-09-28T19:11:24.562Z,3.75
2022-09-28T19:15:25.348Z,4.28
2022-09-28T19:19:28.868Z,5.32
2022-09-28T19:23:28.664Z,4.95
2022-09-28T19:27:28.464Z,6.47
2022-09-28T19:31:31.058Z,3.38
2022-09-28T19:35:33.035Z,4.07
2022-09-28T19:39:33.051Z,4.53
2022-09-28T19:43:34.602Z,3.53
2022-09-28T19:47:36.166Z,3.10
2022-09-28T19:51:43.857Z,3.28
2022-09-28T19:56:05.072Z,3.10
2022-09-28T20:00:06.010Z,2.70
2022-09-28T20:04:05.850Z,2.30
2022-09-28T20:08:07.845Z,2.90
2022-09-28T20:12:07.866Z,2.30
2022-09-28T20:16:08.881Z,2.45
2022-09-28T20:20:11.171Z,8.50
2022-09-28T20:24:16.226Z,3.47
2022-09-28T20:28:16.192Z,6.97
2022-09-28T20:32:17.623Z,7.25
2022-09-28T20:36:18.964Z,4.47
2022-09-28T20:40:21.123Z,5.53
2022-09-28T20:44:21.080Z,4.30
2022-09-28T20:48:24.343Z,3.97
2022-09-28T20:52:24.537Z,4.50
2022-09-28T20:56:27.974Z,4.30
2022-09-28T21:00:27.971Z,5.28
2022-09-28T21:04:27.870Z,3.45
2022-09-28T21:08:27.797Z,4.63
2022-09-28T21:12:30.186Z,3.22
2022-09-28T21:16:31.519Z,2.30
2022-09-28T21:20:31.376Z,2.60
2022-09-28T21:24:32.423Z,2.33
2022-09-28T21:28:34.605Z,1.67
2022-09-28T21:32:35.260Z,1.70
2022-09-28T21:36:35.037Z,2.17
2022-09-28T21:40:34.809Z,2.50
2022-09-28T21:44:36.680Z,3.33
2022-09-28T21:48:36.467Z,1.90
2022-09-28T21:52:39.282Z,1.98
2022-09-28T21:56:38.918Z,2.05
2022-09-28T22:00:40.990Z,3.00
2022-09-28T22:04:40.756Z,2.97
2022-09-28T22:08:41.344Z,2.75
2022-09-28T22:12:41.311Z,3.13
2022-09-28T22:16:42.790Z,2.63
2022-09-28T22:20:42.956Z,3.35
2022-09-28T22:24:42.865Z,2.97
2022-09-28T22:28:47.716Z,2.65
2022-09-28T22:32:50.042Z,2.60
2022-09-28T22:36:49.353Z,3.42
2022-09-28T22:40:49.991Z,3.63
2022-09-28T22:44:49.332Z,3.60
2022-09-28T22:48:52.687Z,4.20
2022-09-28T22:52:52.929Z,4.70
2022-09-28T22:56:52.868Z,3.80
2022-09-28T23:00:53.104Z,3.65
2022-09-28T23:04:55.081Z,3.17
2022-09-28T23:08:55.308Z,4.72
2022-09-28T23:12:55.376Z,4.05
2022-09-28T23:16:55.102Z,4.03
2022-09-28T23:21:01.287Z,3.35
2022-09-28T23:25:01.096Z,3.25
2022-09-28T23:29:01.626Z,3.17
2022-09-28T23:33:00.821Z,3.70
2022-09-28T23:37:02.704Z,3.35
2022-09-28T23:41:02.511Z,4.45
2022-09-28T23:45:02.428Z,3.60
2022-09-28T23:49:03.384Z,4.18
2022-09-28T23:53:07.192Z,3.80
2022-09-28T23:57:07.140Z,4.10
